OMAA/AUH METAR and TAF weather

Enter ICAO airport designator
Station Type Date Time Source
OMAA METAR 2019/12/09 22:00 UTC NOAA

OMAA 092200Z 07005KT CAVOK 23/18 Q1015 NOSIG


Station Type Date Time Source
OMAA Decoded METAR 2019/12/09 22:00 UTC NOAA

Abu Dhabi International Airport, United Arab Emirates (OMAA) 24-26N 054-39E 27M
Dec 09, 2019 - 05:00 PM EST / 2019.12.09 2200 UTC
Wind: from the ENE (070 degrees) at 6 MPH (5 KT):0
Visibility: greater than 7 mile(s):0
Temperature: 73 F (23 C)
Dew Point: 64 F (18 C)
Relative Humidity: 73%
Pressure (altimeter): 29.97 in. Hg (1015 hPa)
ob: OMAA 092200Z 07005KT CAVOK 23/18 Q1015 NOSIG
cycle: 22

Station Type Date Time Source
OMAA TAF 2019/12/09 18:06 UTC NOAA

TAF OMAA 091700Z 0918/1100 08008KT 8000 FEW045
BECMG 1000/1002 15010KT PROB30
TEMPO 1003/1009 VRB20G35KT 2000 TS SHRA FEW035CB PROB30
TEMPO 1009/1100 VRB15G25KT 4000 SHRA FEW040TCU
BECMG 1011/1013 36010KT
BECMG 1015/1017 06008KT

Example: see airport list